• Join FlightAware (Why Join?)
  • Login
  • US Flag 
07:42AM EDT


 

Airport Tracker/Info


-or-


 

Live Flight TrackerFlight Track Log ✈ EGF3949 ✈ 11-Jun-2013 ✈ KORD - KAZO

Flight Track Log - Related Links

Times and Time Zones

All times are in EDT time to prevent confusion due to time zone crossing. See the EGF3949 flight status page for this flight to view local times or setup timezone preferences in your user account.

Time Position Orientation Groundspeed Altitude Reporting Facility
EDT Latitude Longitude Course Direction KTS MPH feet Rate Location/Type
10:26AM 42.0167 -87.9167 77° East 212 244 2,900  Level Chicago TRACON
10:27AM 42.0167 -87.6331 71° East  Level FlightAware Approximate
10:27AM 42.0667 -87.8667 37° Northeast 229 264 4,800  Level Chicago TRACON
10:28AM 42.0382 -87.4964 83° East  Level FlightAware Approximate
10:28AM 42.1000 -87.7833 62° Northeast 284 327 7,600  Level Chicago TRACON
10:29AM 42.0515 -87.3567 78° East  Level FlightAware Approximate
10:29AM 42.1081 -87.6458 85° East 299 344 9,900  Level Chicago Center
10:30AM 42.0728 -87.2187 78° East  Level FlightAware Approximate
10:30AM 42.1089 -87.5250 89° East 321 369 11,800  Level Chicago Center
10:31AM 42.0881 -87.1214 77° East  Level FlightAware Approximate
10:31AM 42.1103 -87.3961 89° East 340 391 13,500  Level Chicago Center
10:32AM 42.1108 -87.2592 90° East 361 415 14,800 720 Climbing Chicago Center
10:33AM 42.1119 -87.1139 89° East 383 441 15,000 60 Climbing Chicago Center
10:34AM 42.1164 -86.9292 88° East 410 472 15,000  Level Chicago Center
10:35AM 42.1228 -86.7803 87° East 404 465 15,000 -540 Level Chicago Center
10:36AM 42.1269 -86.6456 88° East 400 460 13,900 -1,440 Descending Chicago Center
10:37AM 42.1325 -86.5025 87° East 385 443 12,100 -1,440 Descending Chicago Center
10:38AM 42.1381 -86.3397 87° East 365 420 11,000 -960 Descending Chicago Center
10:39AM 42.1417 -86.2156 88° East 338 389 10,200 -1,260 Descending Chicago Center
10:40AM 42.1461 -86.1033 87° East 309 356 8,400 -1,920 Descending Chicago Center
10:41AM 42.1636 -85.9997 77° East 290 334 6,300 -2,040 Descending Chicago Center
10:42AM 42.1389 -85.9025 109° East 283 326 4,300 -1,140 Descending Chicago Center
10:43AM 42.1081 -85.8119 115° Southeast 271 312 4,000 -180 Descending Chicago Center
10:44AM 42.0717 -85.7086 115° Southeast 257 296 4,000 -300 Level Chicago Center
10:45AM 42.0397 -85.6222 116° Southeast 258 297 3,400 -600 Descending Chicago Center
10:46AM 42.0272 -85.5364 101° East 251 289 2,800 -600 Descending Chicago Center